createdAt,value
2022-08-26T00:01:51.796Z,25.03
2022-08-26T00:04:19.078Z,24.94
2022-08-26T00:06:46.021Z,24.87
2022-08-26T00:09:13.828Z,24.71
2022-08-26T00:11:44.036Z,24.63
2022-08-26T00:14:11.439Z,24.56
2022-08-26T00:16:40.953Z,24.50
2022-08-26T00:19:08.634Z,24.41
2022-08-26T00:21:35.772Z,24.23
2022-08-26T00:24:04.501Z,24.13
2022-08-26T00:26:33.738Z,24.07
2022-08-26T00:29:00.380Z,24.01
2022-08-26T00:31:27.299Z,23.98
2022-08-26T00:33:54.045Z,23.92
2022-08-26T00:36:22.622Z,23.87
2022-08-26T00:38:49.835Z,23.76
2022-08-26T00:41:19.192Z,23.75
2022-08-26T00:43:47.960Z,23.75
2022-08-26T00:46:20.720Z,23.73
2022-08-26T00:48:50.508Z,23.65
2022-08-26T00:51:21.834Z,23.57
2022-08-26T00:53:57.456Z,23.46
2022-08-26T00:56:33.486Z,23.42
2022-08-26T00:59:05.198Z,23.40
2022-08-26T01:01:32.234Z,23.44
2022-08-26T01:04:00.955Z,23.45
2022-08-26T01:06:28.561Z,23.47
2022-08-26T01:08:56.185Z,23.41
2022-08-26T01:11:24.802Z,23.36
2022-08-26T01:13:54.879Z,23.37
2022-08-26T01:16:22.592Z,23.34
2022-08-26T01:18:49.247Z,23.32
2022-08-26T01:21:21.012Z,23.35
2022-08-26T01:23:51.633Z,23.40
2022-08-26T01:26:41.373Z,23.43
2022-08-26T01:29:12.879Z,23.30
2022-08-26T01:31:44.075Z,23.20
2022-08-26T01:34:18.741Z,23.15
2022-08-26T01:36:51.371Z,23.19
2022-08-26T01:39:19.330Z,23.21
2022-08-26T01:41:46.613Z,23.07
2022-08-26T01:44:19.735Z,23.00
2022-08-26T01:46:50.737Z,22.99
2022-08-26T01:49:19.443Z,22.80
2022-08-26T01:51:47.995Z,22.72
2022-08-26T01:54:16.037Z,22.76
2022-08-26T01:56:42.985Z,22.84
2022-08-26T01:59:14.512Z,22.87
2022-08-26T02:01:41.787Z,22.85
2022-08-26T02:04:33.281Z,22.77
2022-08-26T02:07:04.329Z,22.59
2022-08-26T02:09:31.004Z,22.58
2022-08-26T02:12:00.756Z,22.54
2022-08-26T02:14:33.111Z,22.51
2022-08-26T02:17:04.674Z,22.52
2022-08-26T02:19:38.734Z,22.54
2022-08-26T02:22:11.555Z,22.51
2022-08-26T02:24:50.303Z,22.54
2022-08-26T02:27:23.765Z,22.50
2022-08-26T02:30:00.439Z,22.49
2022-08-26T02:32:27.866Z,22.53
2022-08-26T02:34:54.620Z,22.56
2022-08-26T02:37:22.514Z,22.61
2022-08-26T02:39:49.756Z,22.63
2022-08-26T02:42:16.360Z,22.57
2022-08-26T02:44:43.031Z,22.52
2022-08-26T02:47:13.838Z,22.54
2022-08-26T02:49:43.106Z,22.55
2022-08-26T02:52:11.911Z,22.49
2022-08-26T02:54:39.261Z,22.46
2022-08-26T02:57:06.192Z,22.45
2022-08-26T02:59:35.984Z,22.49
2022-08-26T03:02:03.276Z,22.39
2022-08-26T03:04:33.446Z,22.29
2022-08-26T03:07:00.331Z,22.30
2022-08-26T03:09:27.357Z,22.36
2022-08-26T03:11:55.518Z,22.34
2022-08-26T03:14:24.072Z,22.27
2022-08-26T03:16:54.054Z,22.32
2022-08-26T03:19:23.903Z,22.32
2022-08-26T03:21:52.417Z,22.27
2022-08-26T03:24:19.881Z,22.24
2022-08-26T03:26:52.779Z,22.26
2022-08-26T03:29:38.687Z,22.33
2022-08-26T03:32:06.204Z,22.43
2022-08-26T03:34:33.268Z,22.47
2022-08-26T03:37:00.024Z,22.52
2022-08-26T03:39:27.175Z,22.55
2022-08-26T03:41:55.173Z,22.50
2022-08-26T03:44:21.907Z,22.54
2022-08-26T03:46:48.579Z,22.54
2022-08-26T03:49:15.689Z,22.52
2022-08-26T03:51:42.275Z,22.56
2022-08-26T03:54:08.918Z,22.54
2022-08-26T03:56:37.206Z,22.50
2022-08-26T03:59:07.602Z,22.52
2022-08-26T04:01:34.997Z,22.52
2022-08-26T04:04:01.872Z,22.57
2022-08-26T04:06:37.013Z,22.63
2022-08-26T04:09:07.289Z,22.57
2022-08-26T04:11:38.620Z,22.51
2022-08-26T04:14:14.286Z,22.40
2022-08-26T04:16:45.850Z,22.36
2022-08-26T04:19:15.538Z,22.44
2022-08-26T04:21:42.760Z,22.49
2022-08-26T04:24:12.177Z,22.54
2022-08-26T04:26:42.828Z,22.47
2022-08-26T04:29:20.014Z,22.46
2022-08-26T04:31:48.220Z,22.46
2022-08-26T04:34:15.557Z,22.42
2022-08-26T04:36:43.203Z,22.45
2022-08-26T04:39:18.615Z,22.47
2022-08-26T04:41:48.569Z,22.48
2022-08-26T04:44:16.501Z,22.51
2022-08-26T04:46:44.184Z,22.46
2022-08-26T04:49:11.421Z,22.51
2022-08-26T04:51:39.147Z,22.40
2022-08-26T04:54:07.293Z,22.39
2022-08-26T04:56:37.662Z,22.40
2022-08-26T04:59:06.520Z,22.45
2022-08-26T05:01:35.040Z,22.43
2022-08-26T05:04:06.167Z,22.45
2022-08-26T05:06:37.046Z,22.44
2022-08-26T05:09:04.594Z,22.45
2022-08-26T05:11:31.363Z,22.38
2022-08-26T05:14:02.180Z,22.44
2022-08-26T05:16:30.628Z,22.44
2022-08-26T05:18:57.577Z,22.42
2022-08-26T05:21:27.250Z,22.29
2022-08-26T05:23:57.029Z,22.19
2022-08-26T05:26:26.188Z,22.23
2022-08-26T05:28:54.935Z,22.32
2022-08-26T05:31:32.750Z,22.42
2022-08-26T05:34:01.035Z,22.48
2022-08-26T05:36:33.303Z,22.46
2022-08-26T05:39:00.641Z,22.52
2022-08-26T05:41:36.262Z,22.59
2022-08-26T05:44:06.214Z,22.59
2022-08-26T05:46:34.430Z,22.58
2022-08-26T05:49:01.715Z,22.59
2022-08-26T05:51:30.512Z,22.54
2022-08-26T05:53:58.296Z,22.50
2022-08-26T05:56:26.197Z,22.49
2022-08-26T05:58:53.876Z,22.49
2022-08-26T06:01:26.241Z,22.48
2022-08-26T06:03:55.299Z,22.56
2022-08-26T06:06:29.859Z,22.59
2022-08-26T06:08:59.384Z,22.69
2022-08-26T06:11:27.666Z,22.55
2022-08-26T06:13:58.930Z,22.49
2022-08-26T06:16:28.647Z,22.43
2022-08-26T06:18:55.642Z,22.43
2022-08-26T06:21:28.329Z,22.54
2022-08-26T06:24:27.093Z,22.60
2022-08-26T06:26:57.253Z,22.50
2022-08-26T06:29:25.925Z,22.45
2022-08-26T06:31:54.235Z,22.34
2022-08-26T06:34:23.471Z,22.28
2022-08-26T06:36:58.664Z,22.24
2022-08-26T06:39:25.507Z,22.21
2022-08-26T06:41:52.226Z,22.31
2022-08-26T06:44:19.152Z,22.30
2022-08-26T06:46:46.333Z,22.35
2022-08-26T06:49:17.747Z,22.41
2022-08-26T06:51:44.586Z,22.53
2022-08-26T06:54:11.521Z,22.54
2022-08-26T06:56:41.737Z,22.57
2022-08-26T06:59:09.270Z,22.53
2022-08-26T07:01:42.838Z,22.47
2022-08-26T07:04:11.280Z,22.48
2022-08-26T07:06:40.608Z,22.55
2022-08-26T07:09:10.078Z,22.66
2022-08-26T07:11:38.452Z,22.57
2022-08-26T07:14:06.214Z,22.36
2022-08-26T07:16:33.527Z,22.17
2022-08-26T07:19:03.292Z,22.12
2022-08-26T07:21:30.306Z,22.14
2022-08-26T07:24:01.297Z,22.18
2022-08-26T07:26:29.683Z,22.29
2022-08-26T07:28:58.315Z,22.23
2022-08-26T07:31:28.501Z,22.15
2022-08-26T07:33:56.822Z,22.05
2022-08-26T07:36:24.767Z,21.98
2022-08-26T07:38:52.750Z,21.89
2022-08-26T07:41:22.956Z,22.02
2022-08-26T07:43:50.885Z,22.22
2022-08-26T07:46:20.775Z,22.34
2022-08-26T07:48:53.941Z,22.49
2022-08-26T07:51:21.918Z,22.40
2022-08-26T07:53:52.428Z,22.36
2022-08-26T07:56:19.663Z,22.40
2022-08-26T07:58:50.520Z,22.36
2022-08-26T08:01:18.603Z,22.33
2022-08-26T08:03:45.505Z,22.34
2022-08-26T08:06:12.164Z,22.42
2022-08-26T08:08:41.406Z,22.54
2022-08-26T08:11:08.087Z,22.60
2022-08-26T08:13:38.450Z,22.72
2022-08-26T08:16:05.796Z,22.68
2022-08-26T08:18:32.641Z,22.73
2022-08-26T08:21:20.938Z,22.70
2022-08-26T08:23:49.041Z,22.75
2022-08-26T08:26:15.762Z,22.76
2022-08-26T08:28:43.645Z,22.86
2022-08-26T08:31:24.705Z,22.87
2022-08-26T08:34:05.564Z,22.94
2022-08-26T08:36:32.243Z,22.97
2022-08-26T08:39:03.081Z,23.02
2022-08-26T08:42:09.059Z,22.97
2022-08-26T08:44:39.565Z,22.61
2022-08-26T08:47:19.334Z,22.44
2022-08-26T08:49:47.531Z,22.36
2022-08-26T08:52:29.843Z,22.36
2022-08-26T08:54:57.224Z,22.51
2022-08-26T08:58:02.537Z,22.55
2022-08-26T09:00:39.840Z,22.60
2022-08-26T09:03:23.597Z,22.68
2022-08-26T09:05:53.478Z,22.72
2022-08-26T09:08:28.410Z,22.72
2022-08-26T09:10:59.215Z,22.78
2022-08-26T09:13:27.448Z,22.75
2022-08-26T09:16:10.358Z,22.67
2022-08-26T09:18:59.287Z,22.68
2022-08-26T09:21:26.947Z,22.73
2022-08-26T09:23:56.822Z,22.90
2022-08-26T09:26:38.616Z,22.97
2022-08-26T09:29:09.197Z,23.02
2022-08-26T09:31:39.202Z,23.03
2022-08-26T09:34:17.440Z,23.07
2022-08-26T09:37:00.729Z,23.04
2022-08-26T09:39:37.483Z,22.91
2022-08-26T09:42:04.660Z,22.81
2022-08-26T09:44:32.124Z,22.74
2022-08-26T09:47:04.051Z,22.90
2022-08-26T09:49:37.678Z,22.98
2022-08-26T09:52:05.570Z,23.10
2022-08-26T09:54:33.975Z,23.26
2022-08-26T09:57:17.876Z,23.35
2022-08-26T09:59:44.586Z,23.26
2022-08-26T10:02:32.306Z,23.14
2022-08-26T10:05:09.120Z,23.09
2022-08-26T10:07:45.106Z,23.05
2022-08-26T10:10:26.246Z,22.96
2022-08-26T10:13:01.208Z,22.87
2022-08-26T10:15:28.250Z,22.84
2022-08-26T10:18:02.330Z,22.89
2022-08-26T10:20:35.830Z,22.94
2022-08-26T10:23:12.651Z,23.02
2022-08-26T10:25:51.437Z,23.05
2022-08-26T10:28:32.302Z,23.13
2022-08-26T10:31:14.986Z,23.27
2022-08-26T10:33:42.639Z,23.37
2022-08-26T10:36:43.075Z,23.52
2022-08-26T10:39:42.964Z,23.48
2022-08-26T10:42:38.104Z,23.38
2022-08-26T10:45:15.158Z,23.26
2022-08-26T10:47:50.194Z,23.39
2022-08-26T10:50:18.924Z,23.43
2022-08-26T10:53:08.774Z,23.41
2022-08-26T10:55:47.332Z,23.37
2022-08-26T10:58:51.341Z,23.56
2022-08-26T11:01:41.922Z,23.58
2022-08-26T11:04:34.974Z,23.62
2022-08-26T11:07:39.214Z,23.72
2022-08-26T11:10:12.932Z,23.71
2022-08-26T11:12:40.115Z,23.79
2022-08-26T11:15:32.659Z,23.84
2022-08-26T11:18:01.589Z,23.87
2022-08-26T11:20:36.377Z,23.81
2022-08-26T11:23:29.156Z,23.78
2022-08-26T11:26:02.079Z,23.59
2022-08-26T11:28:44.177Z,23.32
2022-08-26T11:31:31.786Z,23.22
2022-08-26T11:34:02.554Z,23.36
2022-08-26T11:36:47.768Z,23.47
2022-08-26T11:39:36.970Z,23.33
2022-08-26T11:42:20.429Z,23.45
2022-08-26T11:44:49.530Z,23.65
2022-08-26T11:47:25.016Z,23.69
2022-08-26T11:50:06.994Z,23.76
2022-08-26T11:52:33.565Z,23.90
2022-08-26T11:55:09.236Z,23.89
2022-08-26T11:57:43.548Z,23.93
2022-08-26T12:00:20.923Z,23.85
2022-08-26T12:02:49.791Z,23.87
2022-08-26T12:05:24.044Z,23.82
2022-08-26T12:07:54.573Z,23.89
2022-08-26T12:10:30.104Z,24.08
2022-08-26T12:12:59.281Z,24.21
2022-08-26T12:15:27.904Z,24.28
2022-08-26T12:17:56.400Z,24.26
2022-08-26T12:20:46.314Z,24.28
2022-08-26T12:23:28.037Z,24.16
2022-08-26T12:26:23.363Z,24.01
2022-08-26T12:28:57.544Z,23.88
2022-08-26T12:31:31.771Z,23.76
2022-08-26T12:34:00.949Z,23.82
2022-08-26T12:36:36.537Z,24.02
2022-08-26T12:39:34.129Z,24.17
2022-08-26T12:42:15.841Z,24.29
2022-08-26T12:44:54.100Z,24.32
2022-08-26T12:47:35.179Z,24.21
2022-08-26T12:50:22.313Z,24.00
2022-08-26T12:53:21.371Z,23.94
2022-08-26T12:55:51.630Z,23.91
2022-08-26T12:58:18.158Z,23.92
2022-08-26T13:00:49.411Z,23.87
2022-08-26T13:03:45.754Z,23.86
2022-08-26T13:06:16.315Z,23.92
2022-08-26T13:08:48.018Z,24.01
2022-08-26T13:11:24.755Z,24.13
2022-08-26T13:14:24.073Z,24.11
2022-08-26T13:16:52.330Z,23.94
2022-08-26T13:19:25.453Z,23.77
2022-08-26T13:21:55.412Z,23.71
2022-08-26T13:24:35.426Z,23.71
2022-08-26T13:27:03.538Z,23.71
2022-08-26T13:29:30.186Z,23.59
2022-08-26T13:31:58.174Z,23.54
2022-08-26T13:34:24.829Z,23.48
2022-08-26T13:36:54.656Z,23.44
2022-08-26T13:39:21.422Z,23.49
2022-08-26T13:41:48.669Z,23.50
2022-08-26T13:44:15.437Z,23.59
2022-08-26T13:46:42.149Z,23.72
2022-08-26T13:49:09.521Z,23.79
2022-08-26T13:51:37.748Z,23.83
2022-08-26T13:54:05.433Z,23.87
2022-08-26T13:56:32.943Z,23.87
2022-08-26T13:59:01.215Z,23.78
2022-08-26T14:01:31.198Z,23.71
2022-08-26T14:03:58.389Z,23.68
2022-08-26T14:06:25.302Z,23.71
2022-08-26T14:08:52.057Z,23.69
2022-08-26T14:11:18.880Z,23.66
2022-08-26T14:13:45.546Z,23.61
2022-08-26T14:16:20.317Z,23.65
2022-08-26T14:18:50.596Z,23.65
2022-08-26T14:21:18.456Z,23.51
2022-08-26T14:23:45.282Z,23.41
2022-08-26T14:26:21.448Z,23.45
2022-08-26T14:29:02.580Z,23.49
2022-08-26T14:31:31.801Z,23.50
2022-08-26T14:34:02.516Z,23.42
2022-08-26T14:36:29.280Z,23.47
2022-08-26T14:38:58.400Z,23.42
2022-08-26T14:41:25.534Z,23.44
2022-08-26T14:44:13.905Z,23.48
2022-08-26T14:46:52.522Z,23.51
2022-08-26T14:49:20.725Z,23.56
2022-08-26T14:51:47.649Z,23.52
2022-08-26T14:54:17.886Z,23.40
2022-08-26T14:56:49.470Z,23.29
2022-08-26T14:59:20.764Z,23.27
2022-08-26T15:01:48.346Z,23.32
2022-08-26T15:04:16.245Z,23.49
2022-08-26T15:06:42.899Z,23.65
2022-08-26T15:09:10.268Z,23.62
2022-08-26T15:11:36.940Z,23.45
2022-08-26T15:14:03.934Z,23.33
2022-08-26T15:16:31.172Z,23.39
2022-08-26T15:19:00.878Z,23.35
2022-08-26T15:21:27.466Z,23.21
2022-08-26T15:23:54.506Z,23.08
2022-08-26T15:26:21.910Z,22.88
2022-08-26T15:28:48.618Z,22.75
2022-08-26T15:31:16.303Z,22.73
2022-08-26T15:33:42.924Z,22.72
2022-08-26T15:36:09.983Z,22.79
2022-08-26T15:38:40.230Z,22.70
2022-08-26T15:41:08.690Z,22.72
2022-08-26T15:43:38.786Z,22.72
2022-08-26T15:46:10.921Z,22.77
2022-08-26T15:48:38.467Z,22.89
2022-08-26T15:51:05.933Z,22.87
2022-08-26T15:53:34.824Z,22.91
2022-08-26T15:56:02.186Z,22.94
2022-08-26T15:58:29.775Z,22.94
2022-08-26T16:00:57.426Z,22.98
2022-08-26T16:03:24.472Z,23.02
2022-08-26T16:05:51.578Z,23.02
2022-08-26T16:08:18.985Z,22.94
2022-08-26T16:10:50.421Z,22.84
2022-08-26T16:13:19.038Z,22.88
2022-08-26T16:15:47.560Z,22.83
2022-08-26T16:18:15.710Z,22.89
2022-08-26T16:20:58.557Z,22.84
2022-08-26T16:23:39.919Z,22.80
2022-08-26T16:26:12.039Z,22.78
2022-08-26T16:28:38.754Z,22.71
2022-08-26T16:31:06.383Z,22.68
2022-08-26T16:33:33.104Z,22.68
2022-08-26T16:35:59.791Z,22.68
2022-08-26T16:38:26.372Z,22.64
2022-08-26T16:40:52.937Z,22.51
2022-08-26T16:43:19.468Z,22.30
2022-08-26T16:45:46.136Z,22.21
2022-08-26T16:48:12.690Z,22.28
2022-08-26T16:50:40.809Z,22.30
2022-08-26T16:53:07.958Z,22.22
2022-08-26T16:55:34.791Z,22.16
2022-08-26T16:58:01.785Z,22.16
2022-08-26T17:00:31.874Z,22.20
2022-08-26T17:03:00.417Z,22.18
2022-08-26T17:05:28.269Z,22.14
2022-08-26T17:07:56.526Z,22.16
2022-08-26T17:10:24.284Z,22.15
2022-08-26T17:12:54.432Z,22.19
2022-08-26T17:15:23.764Z,22.23
2022-08-26T17:17:54.793Z,22.23
2022-08-26T17:20:23.532Z,22.14
2022-08-26T17:22:51.845Z,22.07
2022-08-26T17:25:28.905Z,21.95
2022-08-26T17:30:25.868Z,21.87
2022-08-26T17:32:53.875Z,21.82
2022-08-26T17:35:20.980Z,21.83
2022-08-26T17:37:47.853Z,21.85
2022-08-26T17:40:21.955Z,21.85
2022-08-26T17:42:48.787Z,21.82
2022-08-26T17:45:15.618Z,21.75
2022-08-26T17:47:42.389Z,21.76
2022-08-26T17:50:13.094Z,21.74
2022-08-26T17:52:41.226Z,21.75
2022-08-26T17:55:09.761Z,21.79
2022-08-26T17:57:40.654Z,21.82
2022-08-26T18:00:13.087Z,21.86
2022-08-26T18:02:40.448Z,21.87
2022-08-26T18:05:08.345Z,21.87
2022-08-26T18:07:43.594Z,21.82
2022-08-26T18:10:13.464Z,21.79
2022-08-26T18:12:41.622Z,21.79
2022-08-26T18:15:10.017Z,21.82
2022-08-26T18:17:39.253Z,21.86
2022-08-26T18:20:12.245Z,21.87
2022-08-26T18:22:39.359Z,21.85
2022-08-26T18:25:07.805Z,21.86
2022-08-26T18:27:36.158Z,21.79
2022-08-26T18:30:11.361Z,21.72
2022-08-26T18:32:40.560Z,21.61
2022-08-26T18:35:08.637Z,21.61
2022-08-26T18:37:35.625Z,21.61
2022-08-26T18:40:02.501Z,21.62
2022-08-26T18:42:30.624Z,21.61
2022-08-26T18:44:57.211Z,21.62
2022-08-26T18:47:23.891Z,21.51
2022-08-26T18:49:51.242Z,21.49
2022-08-26T18:52:18.529Z,21.46
2022-08-26T18:54:45.135Z,21.46
2022-08-26T18:57:12.167Z,21.41
2022-08-26T18:59:38.871Z,21.45
2022-08-26T19:02:05.679Z,21.43
2022-08-26T19:04:32.405Z,21.37
2022-08-26T19:06:59.535Z,21.34
2022-08-26T19:09:26.469Z,21.30
2022-08-26T19:14:21.460Z,21.26
2022-08-26T19:16:49.940Z,21.30
2022-08-26T19:19:16.717Z,21.22
2022-08-26T19:21:43.540Z,21.20
2022-08-26T19:24:15.604Z,21.16
2022-08-26T19:26:48.219Z,21.18
2022-08-26T19:31:44.112Z,21.12
2022-08-26T19:34:14.701Z,21.12
2022-08-26T19:36:45.006Z,21.08
2022-08-26T19:39:13.871Z,21.10
2022-08-26T19:41:41.053Z,21.08
2022-08-26T19:44:33.686Z,21.04
2022-08-26T19:47:00.718Z,21.03
2022-08-26T19:49:27.366Z,20.98
2022-08-26T19:51:54.213Z,20.87
2022-08-26T19:54:23.314Z,20.76
2022-08-26T19:56:50.018Z,20.70
2022-08-26T19:59:17.480Z,20.65
2022-08-26T20:01:44.456Z,20.62
2022-08-26T20:04:10.971Z,20.69
2022-08-26T20:06:37.550Z,20.73
2022-08-26T20:09:04.276Z,20.77
2022-08-26T20:11:31.209Z,20.77
2022-08-26T20:13:57.859Z,20.76
2022-08-26T20:16:24.459Z,20.79
2022-08-26T20:19:09.679Z,20.73
2022-08-26T20:21:38.992Z,20.64
2022-08-26T20:24:12.872Z,20.62
2022-08-26T20:26:42.060Z,20.59
2022-08-26T20:29:10.687Z,20.60
2022-08-26T20:31:38.086Z,20.63
2022-08-26T20:34:05.523Z,20.66
2022-08-26T20:36:32.814Z,20.66
2022-08-26T20:38:59.573Z,20.67
2022-08-26T20:41:26.462Z,20.67
2022-08-26T20:43:53.930Z,20.54
2022-08-26T20:46:24.734Z,20.45
2022-08-26T20:48:52.914Z,20.42
2022-08-26T20:51:19.625Z,20.34
2022-08-26T20:53:47.201Z,20.18
2022-08-26T20:56:15.499Z,20.18
2022-08-26T20:58:42.658Z,20.20
2022-08-26T21:01:18.735Z,20.22
2022-08-26T21:03:45.909Z,20.20
2022-08-26T21:06:13.038Z,20.17
2022-08-26T21:08:43.335Z,20.12
2022-08-26T21:11:11.601Z,20.08
2022-08-26T21:14:01.233Z,20.07
2022-08-26T21:16:25.114Z,20.05
2022-08-26T21:18:52.481Z,20.04
2022-08-26T21:21:19.506Z,20.09
2022-08-26T21:23:52.004Z,20.06
2022-08-26T21:26:18.898Z,20.00
2022-08-26T21:28:46.402Z,19.91
2022-08-26T21:31:16.641Z,19.89
2022-08-26T21:33:43.653Z,19.85
2022-08-26T21:36:12.215Z,19.80
2022-08-26T21:38:39.262Z,19.66
2022-08-26T21:41:13.035Z,19.57
2022-08-26T21:43:41.941Z,19.47
2022-08-26T21:46:14.410Z,19.44
2022-08-26T21:48:45.681Z,19.47
2022-08-26T21:51:15.712Z,19.52
2022-08-26T21:53:42.626Z,19.52
2022-08-26T21:56:12.413Z,19.60
2022-08-26T21:58:39.554Z,19.56
2022-08-26T22:01:11.390Z,19.54
2022-08-26T22:03:46.727Z,19.52
2022-08-26T22:06:15.981Z,19.54
2022-08-26T22:08:42.516Z,19.53
2022-08-26T22:11:09.636Z,19.42
2022-08-26T22:13:38.824Z,19.42
2022-08-26T22:16:06.152Z,19.43
2022-08-26T22:18:33.538Z,19.43
2022-08-26T22:21:03.924Z,19.40
2022-08-26T22:23:30.567Z,19.44
2022-08-26T22:25:58.624Z,19.42
2022-08-26T22:28:26.392Z,19.36
2022-08-26T22:30:52.994Z,19.26
2022-08-26T22:33:19.810Z,19.04
2022-08-26T22:35:48.894Z,18.85
2022-08-26T22:38:15.751Z,18.73
2022-08-26T22:40:48.066Z,18.67
2022-08-26T22:43:15.092Z,18.70
2022-08-26T22:45:45.725Z,18.72
2022-08-26T22:48:15.595Z,18.71
2022-08-26T22:50:43.302Z,18.65
2022-08-26T22:53:10.166Z,18.64
2022-08-26T22:55:36.938Z,18.64
2022-08-26T22:58:04.938Z,18.70
2022-08-26T23:00:32.644Z,18.77
2022-08-26T23:03:00.326Z,18.74
2022-08-26T23:05:27.509Z,18.69
2022-08-26T23:07:54.501Z,18.67
2022-08-26T23:10:22.647Z,18.74
2022-08-26T23:12:49.534Z,18.72
2022-08-26T23:15:16.259Z,18.64
2022-08-26T23:17:44.950Z,18.59
2022-08-26T23:20:13.273Z,18.61
2022-08-26T23:22:40.670Z,18.49
2022-08-26T23:25:10.004Z,18.51
2022-08-26T23:27:38.916Z,18.49
2022-08-26T23:30:08.818Z,18.48
2022-08-26T23:32:35.564Z,18.45
2022-08-26T23:35:02.217Z,18.37
2022-08-26T23:37:35.065Z,18.34
2022-08-26T23:40:33.477Z,18.25
2022-08-26T23:43:03.381Z,18.22
2022-08-26T23:45:31.737Z,18.16
2022-08-26T23:47:59.188Z,18.10
2022-08-26T23:50:46.372Z,18.04
2022-08-26T23:53:19.403Z,18.02
2022-08-26T23:55:52.366Z,18.06
2022-08-26T23:58:20.844Z,18.09
